createdAt,value
2023-01-07T00:02:28.763Z,3.27
2023-01-07T00:05:13.957Z,4.27
2023-01-07T00:07:59.337Z,3.57
2023-01-07T00:10:43.073Z,4.20
2023-01-07T00:13:27.009Z,4.07
2023-01-07T00:16:13.032Z,5.00
2023-01-07T00:18:58.761Z,4.23
2023-01-07T00:21:44.120Z,4.07
2023-01-07T00:24:27.905Z,4.10
2023-01-07T00:27:11.712Z,4.97
2023-01-07T00:29:55.478Z,4.43
2023-01-07T00:32:57.834Z,4.20
2023-01-07T00:35:41.533Z,3.90
2023-01-07T00:38:26.747Z,3.90
2023-01-07T00:41:10.755Z,4.00
2023-01-07T00:43:55.001Z,3.83
2023-01-07T00:46:38.875Z,3.57
2023-01-07T00:49:24.526Z,3.73
2023-01-07T00:52:08.332Z,3.90
2023-01-07T00:54:53.588Z,4.60
2023-01-07T00:57:37.364Z,4.17
2023-01-07T01:00:23.242Z,4.13
2023-01-07T01:03:07.087Z,4.80
2023-01-07T01:05:52.004Z,4.23
2023-01-07T01:08:36.092Z,4.23
2023-01-07T01:11:21.269Z,3.50
2023-01-07T01:14:05.097Z,3.60
2023-01-07T01:16:49.159Z,3.97
2023-01-07T01:19:32.956Z,3.80
2023-01-07T01:22:16.805Z,3.90
2023-01-07T01:25:01.359Z,3.60
2023-01-07T01:27:46.878Z,3.60
2023-01-07T01:30:30.639Z,4.20
2023-01-07T01:33:16.943Z,4.30
2023-01-07T01:36:05.361Z,4.33
2023-01-07T01:38:49.172Z,4.23
2023-01-07T01:41:33.336Z,4.33
2023-01-07T01:44:46.915Z,4.30
2023-01-07T01:47:40.032Z,4.80
2023-01-07T01:50:28.813Z,4.30
2023-01-07T01:53:17.840Z,4.47
2023-01-07T01:56:10.314Z,4.87
2023-01-07T01:58:58.145Z,4.50
2023-01-07T02:01:43.914Z,4.77
2023-01-07T02:04:31.948Z,4.63
2023-01-07T02:07:18.735Z,5.47
2023-01-07T02:10:15.030Z,5.20
2023-01-07T02:13:16.879Z,4.87
2023-01-07T02:16:06.521Z,4.97
2023-01-07T02:19:11.068Z,4.60
2023-01-07T02:22:05.484Z,5.77
2023-01-07T02:25:15.448Z,5.17
2023-01-07T02:28:24.615Z,4.57
2023-01-07T02:31:37.655Z,4.80
2023-01-07T02:34:29.281Z,4.67
2023-01-07T02:37:18.546Z,5.13
2023-01-07T02:40:11.616Z,5.23
2023-01-07T02:43:08.410Z,5.93
2023-01-07T02:46:02.030Z,7.63
2023-01-07T02:48:47.222Z,5.23
2023-01-07T02:51:37.352Z,6.30
2023-01-07T02:54:24.853Z,5.70
2023-01-07T02:57:27.331Z,5.20
2023-01-07T03:00:18.754Z,4.70
2023-01-07T03:03:18.668Z,5.20
2023-01-07T03:06:16.148Z,4.73
2023-01-07T03:09:11.848Z,4.57
2023-01-07T03:12:06.650Z,4.63
2023-01-07T03:14:53.078Z,3.90
2023-01-07T03:17:42.394Z,4.10
2023-01-07T03:20:27.127Z,5.23
2023-01-07T03:23:14.135Z,10.00
2023-01-07T03:26:05.056Z,5.40
2023-01-07T03:28:51.215Z,4.90
2023-01-07T03:31:37.907Z,5.27
2023-01-07T03:34:26.313Z,5.07
2023-01-07T03:37:13.366Z,6.50
2023-01-07T03:39:58.546Z,5.53
2023-01-07T03:42:49.024Z,8.00
2023-01-07T03:45:39.251Z,7.97
2023-01-07T03:48:23.133Z,6.03
2023-01-07T03:51:06.850Z,5.80
2023-01-07T03:53:50.678Z,5.20
2023-01-07T03:56:34.563Z,5.43
2023-01-07T03:59:19.760Z,4.80
2023-01-07T04:02:04.849Z,4.57
2023-01-07T04:04:49.609Z,5.17
2023-01-07T04:07:33.895Z,4.60
2023-01-07T04:10:18.383Z,5.03
2023-01-07T04:13:02.419Z,4.73
2023-01-07T04:15:47.930Z,4.43
2023-01-07T04:18:32.145Z,4.20
2023-01-07T04:21:15.985Z,4.47
2023-01-07T04:23:59.827Z,4.10
2023-01-07T04:26:44.177Z,4.17
2023-01-07T04:29:29.078Z,3.83
2023-01-07T04:32:14.327Z,4.33
2023-01-07T04:34:58.578Z,4.87
2023-01-07T04:37:43.643Z,4.67
2023-01-07T04:40:27.798Z,6.63
2023-01-07T04:43:12.111Z,6.80
2023-01-07T04:45:55.942Z,5.43
2023-01-07T04:48:41.284Z,5.37
2023-01-07T04:51:25.340Z,4.40
2023-01-07T04:54:09.622Z,4.00
2023-01-07T04:56:53.634Z,3.50
2023-01-07T04:59:37.572Z,4.13
2023-01-07T05:02:21.487Z,4.93
2023-01-07T05:05:07.741Z,4.67
2023-01-07T05:07:52.574Z,4.53
2023-01-07T05:10:37.866Z,4.13
2023-01-07T05:13:24.468Z,3.87
2023-01-07T05:16:09.313Z,4.27
2023-01-07T05:18:53.545Z,4.47
2023-01-07T05:21:39.080Z,4.03
2023-01-07T05:24:23.850Z,4.83
2023-01-07T05:27:08.972Z,5.17
2023-01-07T05:29:54.464Z,6.03
2023-01-07T05:32:38.418Z,8.97
2023-01-07T05:35:22.218Z,6.70
2023-01-07T05:38:07.652Z,6.07
2023-01-07T05:40:51.944Z,5.80
2023-01-07T05:43:39.311Z,10.87
2023-01-07T05:46:23.239Z,13.43
2023-01-07T05:49:07.521Z,20.00
2023-01-07T05:51:51.368Z,13.80
2023-01-07T05:54:36.696Z,11.10
2023-01-07T05:57:20.568Z,7.43
2023-01-07T06:00:04.511Z,7.97
2023-01-07T06:02:55.966Z,7.83
2023-01-07T06:05:39.791Z,10.20
2023-01-07T06:08:24.212Z,9.27
2023-01-07T06:11:10.030Z,7.67
2023-01-07T06:13:53.831Z,8.83
2023-01-07T06:16:37.611Z,7.97
2023-01-07T06:19:22.986Z,8.07
2023-01-07T06:22:06.876Z,7.63
2023-01-07T06:24:50.725Z,7.00
2023-01-07T06:27:36.085Z,6.13
2023-01-07T06:30:20.052Z,7.53
2023-01-07T06:33:05.511Z,8.87
2023-01-07T06:35:49.429Z,12.27
2023-01-07T06:38:33.262Z,6.60
2023-01-07T06:41:16.995Z,7.23
2023-01-07T06:44:02.192Z,6.83
2023-01-07T06:46:47.495Z,6.23
2023-01-07T06:49:31.332Z,6.40
2023-01-07T06:52:15.038Z,9.63
2023-01-07T06:54:58.828Z,5.93
2023-01-07T06:57:42.640Z,5.73
2023-01-07T07:00:27.828Z,6.50
2023-01-07T07:03:12.008Z,7.90
2023-01-07T07:05:55.873Z,7.13
2023-01-07T07:08:39.896Z,8.47
2023-01-07T07:11:23.943Z,20.60
2023-01-07T07:14:07.942Z,15.57
2023-01-07T07:16:53.071Z,15.63
2023-01-07T07:19:36.871Z,13.30
2023-01-07T07:22:20.828Z,11.53
2023-01-07T07:25:05.068Z,5.97
2023-01-07T07:27:49.057Z,2.67
2023-01-07T07:30:46.326Z,3.17
2023-01-07T07:33:33.088Z,4.03
2023-01-07T07:36:16.923Z,3.60
2023-01-07T07:39:00.751Z,3.90
2023-01-07T07:41:44.640Z,3.73
2023-01-07T07:44:28.517Z,4.13
2023-01-07T07:47:12.452Z,4.33
2023-01-07T07:49:57.809Z,4.40
2023-01-07T07:52:41.834Z,4.43
2023-01-07T07:55:26.249Z,3.83
2023-01-07T07:58:10.616Z,3.27
2023-01-07T08:00:54.669Z,3.70
2023-01-07T08:03:38.562Z,3.80
2023-01-07T08:06:23.860Z,2.87
2023-01-07T08:09:07.566Z,3.70
2023-01-07T08:11:51.561Z,2.60
2023-01-07T08:14:35.399Z,2.93
2023-01-07T08:17:19.182Z,2.80
2023-01-07T08:20:03.089Z,2.77
2023-01-07T08:22:48.617Z,2.30
2023-01-07T08:25:33.511Z,4.97
2023-01-07T08:28:17.561Z,4.40
2023-01-07T08:31:03.327Z,18.20
2023-01-07T08:33:47.332Z,2.60
2023-01-07T08:36:31.032Z,5.13
2023-01-07T08:39:16.357Z,4.47
2023-01-07T08:42:00.235Z,11.27
2023-01-07T08:44:44.135Z,4.23
2023-01-07T08:47:28.434Z,2.77
2023-01-07T08:50:12.174Z,2.87
2023-01-07T08:52:56.259Z,3.40
2023-01-07T08:55:41.302Z,2.87
2023-01-07T08:58:25.947Z,2.93
2023-01-07T09:01:10.257Z,2.60
2023-01-07T09:03:54.211Z,2.57
2023-01-07T09:06:37.988Z,2.47
2023-01-07T09:09:22.651Z,4.00
2023-01-07T09:12:10.816Z,3.20
2023-01-07T09:14:54.979Z,3.47
2023-01-07T09:17:38.906Z,3.40
2023-01-07T09:20:22.727Z,3.57
2023-01-07T09:23:06.615Z,3.10
2023-01-07T09:25:50.409Z,3.20
2023-01-07T09:28:35.536Z,7.70
2023-01-07T09:31:19.459Z,5.67
2023-01-07T09:34:03.305Z,9.67
2023-01-07T09:36:47.064Z,5.60
2023-01-07T09:39:31.008Z,9.40
2023-01-07T09:42:24.210Z,9.33
2023-01-07T09:45:18.128Z,8.37
2023-01-07T09:48:06.146Z,8.20
2023-01-07T09:50:55.395Z,11.77
2023-01-07T09:53:44.105Z,12.60
2023-01-07T09:56:30.839Z,9.20
2023-01-07T09:59:15.623Z,6.70
2023-01-07T10:02:12.584Z,7.10
2023-01-07T10:05:03.524Z,7.13
2023-01-07T10:07:54.174Z,6.70
2023-01-07T10:11:06.417Z,7.80
2023-01-07T10:14:21.443Z,7.77
2023-01-07T10:17:19.612Z,7.33
2023-01-07T10:20:09.504Z,6.93
2023-01-07T10:22:57.957Z,7.10
2023-01-07T10:25:45.327Z,5.07
2023-01-07T10:28:35.609Z,12.63
2023-01-07T10:31:23.833Z,3.97
2023-01-07T10:34:15.566Z,3.03
2023-01-07T10:37:03.999Z,3.70
2023-01-07T10:39:57.887Z,3.70
2023-01-07T10:42:49.609Z,3.97
2023-01-07T10:45:58.577Z,4.43
2023-01-07T10:49:16.029Z,7.30
2023-01-07T10:52:14.250Z,4.87
2023-01-07T10:55:23.163Z,4.67
2023-01-07T10:58:10.754Z,3.37
2023-01-07T11:00:54.650Z,3.07
2023-01-07T11:03:40.277Z,2.97
2023-01-07T11:06:46.022Z,2.93
2023-01-07T11:09:33.653Z,3.50
2023-01-07T11:12:26.488Z,3.07
2023-01-07T11:15:18.081Z,3.37
2023-01-07T11:18:05.177Z,2.80
2023-01-07T11:20:51.021Z,2.67
2023-01-07T11:23:37.970Z,3.03
2023-01-07T11:26:27.579Z,3.83
2023-01-07T11:29:18.267Z,3.23
2023-01-07T11:32:05.623Z,2.83
2023-01-07T11:34:56.498Z,3.40
2023-01-07T11:37:42.321Z,2.93
2023-01-07T11:40:28.999Z,3.07
2023-01-07T11:43:23.502Z,3.07
2023-01-07T11:46:23.916Z,3.43
2023-01-07T11:49:23.285Z,2.87
2023-01-07T11:52:07.150Z,2.87
2023-01-07T11:54:52.457Z,3.57
2023-01-07T11:57:38.077Z,3.37
2023-01-07T12:00:22.472Z,3.47
2023-01-07T12:03:12.758Z,3.53
2023-01-07T12:05:59.090Z,3.37
2023-01-07T12:08:50.431Z,3.40
2023-01-07T12:11:36.735Z,4.27
2023-01-07T12:14:27.161Z,3.97
2023-01-07T12:17:16.635Z,3.20
2023-01-07T12:20:35.527Z,3.40
2023-01-07T12:23:29.968Z,3.33
2023-01-07T12:26:17.625Z,3.80
2023-01-07T12:29:14.210Z,4.03
2023-01-07T12:32:11.089Z,2.90
2023-01-07T12:35:14.704Z,3.80
2023-01-07T12:38:04.892Z,3.27
2023-01-07T12:40:52.778Z,3.07
2023-01-07T12:43:41.650Z,3.27
2023-01-07T12:46:28.137Z,3.47
2023-01-07T12:49:21.959Z,3.73
2023-01-07T12:52:12.029Z,3.80
2023-01-07T12:55:00.791Z,3.37
2023-01-07T12:57:52.132Z,3.10
2023-01-07T13:00:42.079Z,3.70
2023-01-07T13:03:44.512Z,3.33
2023-01-07T13:06:42.691Z,2.83
2023-01-07T13:09:31.884Z,3.13
2023-01-07T13:12:43.229Z,3.17
2023-01-07T13:15:29.026Z,3.47
2023-01-07T13:18:16.742Z,3.53
2023-01-07T13:21:08.507Z,3.00
2023-01-07T13:24:15.297Z,3.20
2023-01-07T13:27:11.763Z,4.40
2023-01-07T13:30:08.620Z,4.10
2023-01-07T13:33:16.878Z,4.53
2023-01-07T13:36:16.126Z,4.07
2023-01-07T13:39:27.220Z,4.47
2023-01-07T13:42:25.246Z,4.57
2023-01-07T13:45:14.835Z,3.83
2023-01-07T13:48:01.130Z,5.07
2023-01-07T13:50:55.315Z,4.70
2023-01-07T13:53:47.497Z,5.13
2023-01-07T13:56:37.142Z,4.43
2023-01-07T13:59:46.402Z,3.53
2023-01-07T14:02:31.357Z,4.60
2023-01-07T14:05:25.608Z,5.80
2023-01-07T14:08:09.629Z,5.00
2023-01-07T14:10:55.079Z,3.87
2023-01-07T14:13:46.561Z,3.97
2023-01-07T14:16:37.655Z,3.50
2023-01-07T14:19:33.236Z,3.37
2023-01-07T14:22:28.883Z,3.20
2023-01-07T14:25:37.730Z,5.83
2023-01-07T14:28:47.960Z,4.20
2023-01-07T14:31:32.603Z,4.00
2023-01-07T14:34:24.292Z,4.30
2023-01-07T14:37:18.472Z,5.17
2023-01-07T14:40:42.788Z,4.40
2023-01-07T14:44:06.751Z,3.80
2023-01-07T14:46:53.763Z,9.80
2023-01-07T14:50:11.511Z,7.93
2023-01-07T14:53:38.382Z,6.20
2023-01-07T14:56:32.836Z,6.93
2023-01-07T14:59:32.421Z,11.80
2023-01-07T15:02:46.192Z,18.23
2023-01-07T15:06:00.441Z,24.93
2023-01-07T15:09:08.134Z,37.80
2023-01-07T15:12:11.608Z,98.43
2023-01-07T15:15:21.651Z,30.17
2023-01-07T15:18:09.981Z,42.27
2023-01-07T15:21:09.039Z,14.87
2023-01-07T15:24:02.707Z,31.23
2023-01-07T15:26:51.933Z,14.07
2023-01-07T15:29:45.522Z,30.70
2023-01-07T15:32:40.351Z,9.37
2023-01-07T15:35:32.939Z,16.80
2023-01-07T15:38:28.859Z,20.60
2023-01-07T15:41:30.009Z,17.13
2023-01-07T15:44:19.136Z,14.93
2023-01-07T15:47:03.877Z,20.10
2023-01-07T15:49:47.732Z,18.57
2023-01-07T15:52:33.001Z,18.70
2023-01-07T15:55:24.316Z,17.63
2023-01-07T15:58:14.499Z,10.53
2023-01-07T16:01:00.875Z,33.07
2023-01-07T16:03:45.171Z,17.70
2023-01-07T16:06:36.004Z,11.67
2023-01-07T16:09:22.748Z,24.50
2023-01-07T16:12:21.429Z,25.37
2023-01-07T16:15:23.780Z,9.70
2023-01-07T16:18:19.481Z,14.63
2023-01-07T16:21:06.909Z,15.10
2023-01-07T16:23:50.869Z,15.93
2023-01-07T16:26:40.867Z,13.20
2023-01-07T16:29:28.063Z,12.57
2023-01-07T16:32:13.227Z,7.60
2023-01-07T16:35:03.684Z,8.70
2023-01-07T16:37:50.097Z,12.53
2023-01-07T16:40:37.231Z,16.00
2023-01-07T16:43:55.155Z,10.27
2023-01-07T16:46:42.911Z,12.53
2023-01-07T16:49:29.696Z,14.47
2023-01-07T16:52:18.066Z,13.87
2023-01-07T16:55:02.019Z,10.53
2023-01-07T16:57:48.060Z,9.27
2023-01-07T17:00:33.250Z,14.03
2023-01-07T17:03:17.793Z,11.90
2023-01-07T17:06:05.813Z,8.97
2023-01-07T17:08:51.831Z,9.53
2023-01-07T17:11:39.022Z,8.50
2023-01-07T17:14:45.453Z,6.57
2023-01-07T17:17:32.920Z,17.93
2023-01-07T17:20:22.463Z,10.47
2023-01-07T17:23:32.876Z,13.37
2023-01-07T17:26:23.064Z,10.73
2023-01-07T17:29:13.520Z,9.27
2023-01-07T17:31:57.406Z,13.67
2023-01-07T17:34:41.288Z,9.27
2023-01-07T17:37:25.038Z,17.23
2023-01-07T17:40:09.825Z,21.77
2023-01-07T17:43:12.184Z,22.90
2023-01-07T17:45:56.051Z,12.40
2023-01-07T17:48:40.660Z,12.17
2023-01-07T17:51:25.252Z,8.40
2023-01-07T17:54:17.457Z,13.87
2023-01-07T17:57:01.715Z,12.70
2023-01-07T17:59:48.267Z,8.10
2023-01-07T18:02:33.101Z,9.60
2023-01-07T18:05:19.574Z,16.70
2023-01-07T18:08:03.408Z,11.63
2023-01-07T18:11:14.247Z,8.57
2023-01-07T18:13:58.545Z,15.07
2023-01-07T18:16:44.462Z,15.83
2023-01-07T18:19:28.654Z,20.50
2023-01-07T18:22:12.629Z,10.77
2023-01-07T18:24:56.947Z,19.17
2023-01-07T18:27:40.989Z,12.50
2023-01-07T18:30:25.388Z,11.50
2023-01-07T18:33:12.902Z,6.60
2023-01-07T18:35:56.947Z,14.47
2023-01-07T18:38:41.240Z,12.57
2023-01-07T18:41:25.139Z,6.83
2023-01-07T18:44:09.014Z,10.87
2023-01-07T18:46:52.888Z,20.93
2023-01-07T18:49:38.077Z,6.77
2023-01-07T18:52:21.852Z,5.80
2023-01-07T18:55:06.406Z,8.43
2023-01-07T18:57:52.492Z,11.57
2023-01-07T19:00:36.624Z,9.80
2023-01-07T19:03:20.609Z,16.33
2023-01-07T19:06:08.964Z,11.20
2023-01-07T19:08:52.820Z,7.40
2023-01-07T19:11:38.428Z,6.70
2023-01-07T19:14:22.858Z,7.10
2023-01-07T19:17:07.653Z,7.27
2023-01-07T19:19:52.760Z,9.93
2023-01-07T19:22:38.009Z,12.73
2023-01-07T19:25:21.918Z,10.57
2023-01-07T19:28:06.148Z,10.40
2023-01-07T19:30:49.976Z,9.67
2023-01-07T19:33:34.118Z,12.93
2023-01-07T19:36:18.823Z,12.60
2023-01-07T19:39:04.180Z,14.23
2023-01-07T19:41:48.373Z,12.47
2023-01-07T19:44:34.442Z,12.97
2023-01-07T19:47:18.424Z,11.33
2023-01-07T19:50:02.423Z,10.43
2023-01-07T19:52:46.916Z,9.17
2023-01-07T19:55:32.201Z,8.43
2023-01-07T19:58:16.568Z,6.87
2023-01-07T20:01:03.431Z,8.77
2023-01-07T20:03:47.983Z,9.80
2023-01-07T20:06:34.880Z,9.17
2023-01-07T20:09:18.854Z,10.03
2023-01-07T20:12:04.392Z,13.93
2023-01-07T20:14:48.708Z,11.87
2023-01-07T20:17:33.333Z,7.83
2023-01-07T20:20:17.385Z,8.80
2023-01-07T20:23:01.195Z,10.20
2023-01-07T20:25:45.038Z,13.80
2023-01-07T20:28:30.283Z,13.50
2023-01-07T20:31:16.296Z,11.83
2023-01-07T20:34:00.799Z,11.97
2023-01-07T20:36:44.490Z,13.43
2023-01-07T20:39:28.343Z,17.10
2023-01-07T20:42:12.159Z,12.87
2023-01-07T20:44:57.514Z,12.90
2023-01-07T20:47:41.333Z,8.97
2023-01-07T20:50:25.437Z,9.37
2023-01-07T20:53:10.004Z,9.20
2023-01-07T20:55:57.472Z,6.40
2023-01-07T20:58:41.543Z,9.97
2023-01-07T21:01:27.057Z,6.57
2023-01-07T21:04:11.080Z,6.90
2023-01-07T21:06:55.211Z,11.80
2023-01-07T21:09:39.444Z,10.73
2023-01-07T21:12:23.665Z,13.77
2023-01-07T21:15:08.937Z,18.20
2023-01-07T21:17:55.843Z,10.27
2023-01-07T21:20:41.153Z,22.43
2023-01-07T21:23:26.292Z,12.33
2023-01-07T21:26:10.968Z,16.90
2023-01-07T21:28:56.808Z,13.50
2023-01-07T21:31:40.864Z,14.33
2023-01-07T21:34:26.270Z,15.53
2023-01-07T21:37:10.232Z,9.50
2023-01-07T21:39:54.194Z,10.30
2023-01-07T21:42:38.202Z,10.40
2023-01-07T21:45:22.124Z,8.97
2023-01-07T21:48:06.610Z,9.20
2023-01-07T21:50:52.209Z,9.47
2023-01-07T21:53:37.209Z,8.47
2023-01-07T21:56:21.282Z,8.50
2023-01-07T21:59:05.308Z,10.43
2023-01-07T22:01:49.431Z,9.80
2023-01-07T22:04:35.057Z,10.40
2023-01-07T22:07:20.966Z,8.03
2023-01-07T22:10:05.343Z,6.60
2023-01-07T22:12:49.229Z,8.63
2023-01-07T22:15:33.061Z,8.00
2023-01-07T22:18:17.372Z,8.07
2023-01-07T22:21:01.225Z,7.77
2023-01-07T22:23:47.448Z,7.73
2023-01-07T22:26:31.222Z,8.23
2023-01-07T22:29:16.162Z,7.63
2023-01-07T22:31:59.878Z,9.77
2023-01-07T22:34:43.639Z,10.10
2023-01-07T22:37:27.555Z,10.83
2023-01-07T22:40:13.876Z,11.17
2023-01-07T22:42:59.972Z,8.30
2023-01-07T22:45:50.962Z,8.23
2023-01-07T22:48:36.596Z,8.93
2023-01-07T22:51:25.133Z,11.83
2023-01-07T22:54:09.483Z,12.27
2023-01-07T22:56:55.399Z,9.17
2023-01-07T22:59:39.570Z,7.80
2023-01-07T23:02:23.496Z,9.57
2023-01-07T23:05:08.083Z,8.97
2023-01-07T23:07:51.886Z,7.40
2023-01-07T23:10:37.281Z,7.30
2023-01-07T23:13:22.530Z,8.17
2023-01-07T23:16:07.713Z,8.23
2023-01-07T23:18:51.702Z,8.10
2023-01-07T23:21:37.677Z,8.17
2023-01-07T23:24:22.291Z,8.33
2023-01-07T23:27:06.427Z,8.27
2023-01-07T23:29:51.778Z,8.10
2023-01-07T23:32:35.750Z,7.03
2023-01-07T23:35:19.734Z,8.67
2023-01-07T23:38:03.967Z,7.70
2023-01-07T23:40:47.831Z,8.43
2023-01-07T23:43:32.207Z,9.50
2023-01-07T23:46:17.529Z,7.97
2023-01-07T23:49:01.386Z,7.87
2023-01-07T23:51:45.343Z,9.33
2023-01-07T23:54:29.035Z,8.60
2023-01-07T23:57:12.959Z,8.20
2023-01-07T23:59:56.792Z,8.37
